createdAt,value
2023-04-09T00:01:13.006Z,45.70
2023-04-09T00:03:41.448Z,46.33
2023-04-09T00:06:09.956Z,47.35
2023-04-09T00:08:43.273Z,47.00
2023-04-09T00:11:11.429Z,46.65
2023-04-09T00:13:40.941Z,46.75
2023-04-09T00:16:09.689Z,48.55
2023-04-09T00:18:38.015Z,48.90
2023-04-09T00:21:07.208Z,46.77
2023-04-09T00:23:35.937Z,47.27
2023-04-09T00:26:04.207Z,48.05
2023-04-09T00:28:32.161Z,47.80
2023-04-09T00:31:01.812Z,49.70
2023-04-09T00:33:30.032Z,48.83
2023-04-09T00:35:58.946Z,49.17
2023-04-09T00:38:27.139Z,47.92
2023-04-09T00:40:55.562Z,48.45
2023-04-09T00:43:25.229Z,49.15
2023-04-09T00:45:53.516Z,50.10
2023-04-09T00:48:23.670Z,50.22
2023-04-09T00:50:51.856Z,47.15
2023-04-09T00:53:20.612Z,49.60
2023-04-09T00:55:49.246Z,48.95
2023-04-09T00:58:17.390Z,50.22
2023-04-09T01:00:45.784Z,49.58
2023-04-09T01:03:14.075Z,49.55
2023-04-09T01:05:53.898Z,51.38
2023-04-09T01:08:33.690Z,51.17
2023-04-09T01:11:09.854Z,50.53
2023-04-09T01:13:44.611Z,51.17
2023-04-09T01:16:16.985Z,49.95
2023-04-09T01:18:55.690Z,51.05
2023-04-09T01:21:31.238Z,50.07
2023-04-09T01:24:08.153Z,50.13
2023-04-09T01:26:52.027Z,50.45
2023-04-09T01:29:23.941Z,50.85
2023-04-09T01:31:53.040Z,50.55
2023-04-09T01:34:22.880Z,51.03
2023-04-09T01:36:55.744Z,50.57
2023-04-09T01:39:24.983Z,49.45
2023-04-09T01:41:53.971Z,50.60
2023-04-09T01:44:24.886Z,50.95
2023-04-09T01:46:53.776Z,51.55
2023-04-09T01:49:23.245Z,52.50
2023-04-09T01:51:51.993Z,49.83
2023-04-09T01:54:20.017Z,50.67
2023-04-09T01:56:49.582Z,50.50
2023-04-09T01:59:17.713Z,50.87
2023-04-09T02:01:51.084Z,50.67
2023-04-09T02:04:24.234Z,51.10
2023-04-09T02:06:59.678Z,51.80
2023-04-09T02:09:30.700Z,51.13
2023-04-09T02:12:05.002Z,50.90
2023-04-09T02:14:34.474Z,51.63
2023-04-09T02:17:07.103Z,50.57
2023-04-09T02:19:42.188Z,51.07
2023-04-09T02:22:11.288Z,50.90
2023-04-09T02:24:40.571Z,51.63
2023-04-09T02:27:10.601Z,51.20
2023-04-09T02:29:39.475Z,51.33
2023-04-09T02:32:09.720Z,50.17
2023-04-09T02:34:37.723Z,51.42
2023-04-09T02:37:07.552Z,52.00
2023-04-09T02:39:35.889Z,52.27
2023-04-09T02:42:04.109Z,50.97
2023-04-09T02:44:32.629Z,50.93
2023-04-09T02:47:01.289Z,52.10
2023-04-09T02:49:30.878Z,52.27
2023-04-09T02:51:58.945Z,51.67
2023-04-09T02:54:26.922Z,50.73
2023-04-09T02:56:55.218Z,51.67
2023-04-09T02:59:23.430Z,51.23
2023-04-09T03:01:51.478Z,51.53
2023-04-09T03:04:21.256Z,49.63
2023-04-09T03:06:51.979Z,50.93
2023-04-09T03:09:20.259Z,47.57
2023-04-09T03:11:48.410Z,50.27
2023-04-09T03:14:18.431Z,49.20
2023-04-09T03:16:46.579Z,50.58
2023-04-09T03:19:14.868Z,48.90
2023-04-09T03:21:43.035Z,49.77
2023-04-09T03:24:12.934Z,49.35
2023-04-09T03:26:41.136Z,49.07
2023-04-09T03:29:09.345Z,49.53
2023-04-09T03:31:37.618Z,49.23
2023-04-09T03:34:06.011Z,48.50
2023-04-09T03:36:34.235Z,48.50
2023-04-09T03:39:02.336Z,48.92
2023-04-09T03:41:31.719Z,48.38
2023-04-09T03:43:59.864Z,48.42
2023-04-09T03:46:28.143Z,49.42
2023-04-09T03:48:56.639Z,49.10
2023-04-09T03:51:24.597Z,48.13
2023-04-09T03:53:54.359Z,48.10
2023-04-09T03:56:22.499Z,49.30
2023-04-09T03:58:52.188Z,49.40
2023-04-09T04:01:20.433Z,50.13
2023-04-09T04:03:50.117Z,48.92
2023-04-09T04:06:18.293Z,49.40
2023-04-09T04:08:46.675Z,48.22
2023-04-09T04:11:14.710Z,47.95
2023-04-09T04:13:42.770Z,48.95
2023-04-09T04:16:12.771Z,48.08
2023-04-09T04:18:41.014Z,48.00
2023-04-09T04:21:17.885Z,46.53
2023-04-09T04:23:46.068Z,47.08
2023-04-09T04:26:14.543Z,49.38
2023-04-09T04:28:43.139Z,48.97
2023-04-09T04:31:15.681Z,47.30
2023-04-09T04:33:44.162Z,48.67
2023-04-09T04:36:13.921Z,46.97
2023-04-09T04:38:42.844Z,49.83
2023-04-09T04:41:12.608Z,48.17
2023-04-09T04:43:41.949Z,47.50
2023-04-09T04:46:13.047Z,48.67
2023-04-09T04:48:42.787Z,47.20
2023-04-09T04:51:10.869Z,48.95
2023-04-09T04:53:39.003Z,46.78
2023-04-09T04:56:07.361Z,48.95
2023-04-09T04:58:35.976Z,49.22
2023-04-09T05:01:04.114Z,48.35
2023-04-09T05:03:32.475Z,46.85
2023-04-09T05:06:02.252Z,47.75
2023-04-09T05:08:30.517Z,46.92
2023-04-09T05:10:58.705Z,45.53
2023-04-09T05:13:26.991Z,47.05
2023-04-09T05:15:57.469Z,46.97
2023-04-09T05:18:25.434Z,49.15
2023-04-09T05:20:53.458Z,48.22
2023-04-09T05:23:23.455Z,47.90
2023-04-09T05:25:51.622Z,46.10
2023-04-09T05:28:19.869Z,47.35
2023-04-09T05:30:48.617Z,46.88
2023-04-09T05:33:16.823Z,48.22
2023-04-09T05:35:44.990Z,48.50
2023-04-09T05:38:13.886Z,48.72
2023-04-09T05:40:45.073Z,48.65
2023-04-09T05:43:13.309Z,48.05
2023-04-09T05:45:41.455Z,48.70
2023-04-09T05:48:09.664Z,47.92
2023-04-09T05:50:51.070Z,49.20
2023-04-09T05:53:22.640Z,49.10
2023-04-09T05:55:52.435Z,49.53
2023-04-09T05:58:20.656Z,49.10
2023-04-09T06:00:51.360Z,47.60
2023-04-09T06:03:19.767Z,49.15
2023-04-09T06:05:48.394Z,48.83
2023-04-09T06:08:16.700Z,48.92
2023-04-09T06:10:44.982Z,49.80
2023-04-09T06:13:14.795Z,47.90
2023-04-09T06:15:43.471Z,47.97
2023-04-09T06:18:11.633Z,49.33
2023-04-09T06:20:39.736Z,48.00
2023-04-09T06:23:08.045Z,48.58
2023-04-09T06:25:39.870Z,47.90
2023-04-09T06:28:07.880Z,48.08
2023-04-09T06:30:37.846Z,47.35
2023-04-09T06:33:06.335Z,48.58
2023-04-09T06:35:34.542Z,49.20
2023-04-09T06:38:02.783Z,46.20
2023-04-09T06:40:31.480Z,48.33
2023-04-09T06:42:59.720Z,47.58
2023-04-09T06:45:28.013Z,49.25
2023-04-09T06:47:58.120Z,47.65
2023-04-09T06:50:26.272Z,47.80
2023-04-09T06:52:55.534Z,47.45
2023-04-09T06:55:23.728Z,48.08
2023-04-09T06:57:51.972Z,48.63
2023-04-09T07:00:20.367Z,47.88
2023-04-09T07:02:48.763Z,48.58
2023-04-09T07:05:18.799Z,49.38
2023-04-09T07:07:46.807Z,50.08
2023-04-09T07:10:15.553Z,49.83
2023-04-09T07:12:43.806Z,49.78
2023-04-09T07:15:12.069Z,48.40
2023-04-09T07:17:43.227Z,50.85
2023-04-09T07:20:12.342Z,48.53
2023-04-09T07:22:42.364Z,49.90
2023-04-09T07:25:10.937Z,49.65
2023-04-09T07:27:38.957Z,49.88
2023-04-09T07:30:08.547Z,51.85
2023-04-09T07:32:36.892Z,51.67
2023-04-09T07:35:05.971Z,52.05
2023-04-09T07:37:34.616Z,51.42
2023-04-09T07:40:04.989Z,52.38
2023-04-09T07:42:33.255Z,52.13
2023-04-09T07:45:03.983Z,52.03
2023-04-09T07:47:35.119Z,53.00
2023-04-09T07:50:03.313Z,52.95
2023-04-09T07:52:31.579Z,53.47
2023-04-09T07:54:59.580Z,52.75
2023-04-09T07:57:32.410Z,52.95
2023-04-09T08:00:00.639Z,55.00
2023-04-09T08:02:28.957Z,55.92
2023-04-09T08:04:58.332Z,53.20
2023-04-09T08:07:26.446Z,53.78
2023-04-09T08:09:54.666Z,52.75
2023-04-09T08:12:22.638Z,54.53
2023-04-09T08:14:55.164Z,54.22
2023-04-09T08:17:23.416Z,52.28
2023-04-09T08:19:51.611Z,54.90
2023-04-09T08:22:19.894Z,53.58
2023-04-09T08:24:52.772Z,55.30
2023-04-09T08:27:22.108Z,54.58
2023-04-09T08:29:52.819Z,54.13
2023-04-09T08:32:21.473Z,54.92
2023-04-09T08:34:49.407Z,55.53
2023-04-09T08:37:18.006Z,56.15
2023-04-09T08:39:46.150Z,55.78
2023-04-09T08:42:16.413Z,54.95
2023-04-09T08:44:45.271Z,54.38
2023-04-09T08:47:15.698Z,54.38
2023-04-09T08:49:45.154Z,52.63
2023-04-09T08:52:13.199Z,53.70
2023-04-09T08:54:41.373Z,53.78
2023-04-09T08:57:09.665Z,56.75
2023-04-09T08:59:37.916Z,54.72
2023-04-09T09:02:09.325Z,54.72
2023-04-09T09:04:49.382Z,54.55
2023-04-09T09:07:18.407Z,54.05
2023-04-09T09:09:53.913Z,56.03
2023-04-09T09:12:38.600Z,55.72
2023-04-09T09:15:25.534Z,55.53
2023-04-09T09:17:56.690Z,54.38
2023-04-09T09:20:27.149Z,54.55
2023-04-09T09:23:01.658Z,54.72
2023-04-09T09:25:30.883Z,55.05
2023-04-09T09:28:09.683Z,55.05
2023-04-09T09:30:39.255Z,56.05
2023-04-09T09:33:11.281Z,56.25
2023-04-09T09:35:58.720Z,56.13
2023-04-09T09:38:27.275Z,55.40
2023-04-09T09:40:55.573Z,56.67
2023-04-09T09:43:23.976Z,57.22
2023-04-09T09:45:54.394Z,57.13
2023-04-09T09:48:22.765Z,59.65
2023-04-09T09:50:52.704Z,60.75
2023-04-09T09:53:27.577Z,58.97
2023-04-09T09:56:01.786Z,62.88
2023-04-09T09:58:37.190Z,60.65
2023-04-09T10:01:10.878Z,60.97
2023-04-09T10:03:43.200Z,60.03
2023-04-09T10:06:12.757Z,60.88
2023-04-09T10:08:43.195Z,62.88
2023-04-09T10:11:12.507Z,61.80
2023-04-09T10:13:43.098Z,61.80
2023-04-09T10:16:11.395Z,61.65
2023-04-09T10:18:42.751Z,62.60
2023-04-09T10:21:18.019Z,62.10
2023-04-09T10:23:51.344Z,59.63
2023-04-09T10:26:31.849Z,62.25
2023-04-09T10:29:11.571Z,63.38
2023-04-09T10:31:59.290Z,59.60
2023-04-09T10:34:29.534Z,62.15
2023-04-09T10:37:01.815Z,61.97
2023-04-09T10:39:33.407Z,62.25
2023-04-09T10:42:03.576Z,62.83
2023-04-09T10:44:32.833Z,62.17
2023-04-09T10:47:01.085Z,61.85
2023-04-09T10:49:36.483Z,62.25
2023-04-09T10:52:06.322Z,63.28
2023-04-09T10:54:59.490Z,69.15
2023-04-09T10:57:28.175Z,66.80
2023-04-09T10:59:56.963Z,66.57
2023-04-09T11:03:13.120Z,66.03
2023-04-09T11:05:42.840Z,65.07
2023-04-09T11:08:12.237Z,64.22
2023-04-09T11:10:49.793Z,61.17
2023-04-09T11:13:22.021Z,60.40
2023-04-09T11:15:53.308Z,65.93
2023-04-09T11:18:22.389Z,64.20
2023-04-09T11:20:51.465Z,65.18
2023-04-09T11:23:20.030Z,73.20
2023-04-09T11:25:52.332Z,63.58
2023-04-09T11:28:21.441Z,58.70
2023-04-09T11:30:54.871Z,56.35
2023-04-09T11:33:23.085Z,49.85
2023-04-09T11:35:52.076Z,40.55
2023-04-09T11:38:20.104Z,46.05
2023-04-09T11:40:49.385Z,49.05
2023-04-09T11:43:21.106Z,38.90
2023-04-09T11:45:49.715Z,33.30
2023-04-09T11:48:21.908Z,29.63
2023-04-09T11:50:50.918Z,26.15
2023-04-09T11:53:20.094Z,26.08
2023-04-09T11:55:50.761Z,26.70
2023-04-09T11:58:23.815Z,24.23
2023-04-09T12:00:54.456Z,24.50
2023-04-09T12:03:29.746Z,25.08
2023-04-09T12:06:00.980Z,25.17
2023-04-09T12:08:29.194Z,25.42
2023-04-09T12:10:57.706Z,25.55
2023-04-09T12:13:34.978Z,24.00
2023-04-09T12:16:03.718Z,23.88
2023-04-09T12:18:37.900Z,24.90
2023-04-09T12:21:06.627Z,23.38
2023-04-09T12:23:35.229Z,32.50
2023-04-09T12:26:05.452Z,27.00
2023-04-09T12:28:35.043Z,25.30
2023-04-09T12:31:03.601Z,26.33
2023-04-09T12:33:32.290Z,21.95
2023-04-09T12:36:04.303Z,24.23
2023-04-09T12:38:32.608Z,25.45
2023-04-09T12:41:01.497Z,30.25
2023-04-09T12:43:34.267Z,24.10
2023-04-09T12:46:02.574Z,22.73
2023-04-09T12:48:38.681Z,21.75
2023-04-09T12:51:07.632Z,21.77
2023-04-09T12:53:35.997Z,21.25
2023-04-09T12:56:04.227Z,21.33
2023-04-09T12:58:34.068Z,20.65
2023-04-09T13:01:04.477Z,20.98
2023-04-09T13:03:35.935Z,19.65
2023-04-09T13:06:09.153Z,20.60
2023-04-09T13:08:37.284Z,20.52
2023-04-09T13:11:06.000Z,20.30
2023-04-09T13:13:35.549Z,19.65
2023-04-09T13:16:04.496Z,20.13
2023-04-09T13:18:32.717Z,24.58
2023-04-09T13:21:00.957Z,18.98
2023-04-09T13:23:29.094Z,18.38
2023-04-09T13:25:58.841Z,17.70
2023-04-09T13:28:27.493Z,19.33
2023-04-09T13:30:57.661Z,19.30
2023-04-09T13:33:25.994Z,18.83
2023-04-09T13:35:54.299Z,19.15
2023-04-09T13:38:22.557Z,17.80
2023-04-09T13:40:50.893Z,18.25
2023-04-09T13:43:19.068Z,18.80
2023-04-09T13:45:47.361Z,19.33
2023-04-09T13:48:18.258Z,19.70
2023-04-09T13:50:46.690Z,16.98
2023-04-09T13:53:16.911Z,17.63
2023-04-09T13:55:45.930Z,17.35
2023-04-09T13:58:14.212Z,16.92
2023-04-09T14:00:42.463Z,17.38
2023-04-09T14:03:11.212Z,17.55
2023-04-09T14:05:40.683Z,16.08
2023-04-09T14:08:08.858Z,16.75
2023-04-09T14:10:37.431Z,16.42
2023-04-09T14:13:07.313Z,16.92
2023-04-09T14:15:38.080Z,16.17
2023-04-09T14:18:06.460Z,14.77
2023-04-09T14:20:36.121Z,14.15
2023-04-09T14:23:06.948Z,16.23
2023-04-09T14:25:35.143Z,15.43
2023-04-09T14:28:03.317Z,14.93
2023-04-09T14:30:31.429Z,14.23
2023-04-09T14:33:00.009Z,14.15
2023-04-09T14:35:28.296Z,13.48
2023-04-09T14:37:56.619Z,14.57
2023-04-09T14:40:26.184Z,13.82
2023-04-09T14:42:54.437Z,14.35
2023-04-09T14:45:22.678Z,13.57
2023-04-09T14:47:50.886Z,13.30
2023-04-09T14:50:21.904Z,12.15
2023-04-09T14:52:50.383Z,12.30
2023-04-09T14:55:18.729Z,13.68
2023-04-09T14:57:48.223Z,13.15
2023-04-09T15:00:16.780Z,12.57
2023-04-09T15:02:47.739Z,12.40
2023-04-09T15:05:16.166Z,12.48
2023-04-09T15:07:44.851Z,12.27
2023-04-09T15:10:13.795Z,12.27
2023-04-09T15:12:44.277Z,12.35
2023-04-09T15:15:14.744Z,12.35
2023-04-09T15:18:06.208Z,12.80
2023-04-09T15:20:38.073Z,11.40
2023-04-09T15:23:06.382Z,11.68
2023-04-09T15:25:36.655Z,11.95
2023-04-09T15:28:05.493Z,11.90
2023-04-09T15:30:35.477Z,12.20
2023-04-09T15:33:03.765Z,11.98
2023-04-09T15:35:32.100Z,11.48
2023-04-09T15:38:00.265Z,12.05
2023-04-09T15:40:33.229Z,11.80
2023-04-09T15:43:29.860Z,11.48
2023-04-09T15:46:59.687Z,11.52
2023-04-09T15:50:08.357Z,11.25
2023-04-09T16:01:31.995Z,11.40
2023-04-09T16:04:00.888Z,11.02
2023-04-09T16:06:40.241Z,10.90
2023-04-09T16:09:09.059Z,10.23
2023-04-09T16:11:46.952Z,10.65
2023-04-09T16:14:36.196Z,10.38
2023-04-09T16:17:10.441Z,9.82
2023-04-09T16:19:40.622Z,9.77
2023-04-09T16:22:09.686Z,10.73
2023-04-09T16:24:41.533Z,11.63
2023-04-09T16:27:11.150Z,11.20
2023-04-09T16:29:40.169Z,11.27
2023-04-09T16:32:12.806Z,10.30
2023-04-09T16:34:41.676Z,11.13
2023-04-09T16:37:10.525Z,11.23
2023-04-09T16:39:38.880Z,11.13
2023-04-09T16:42:07.929Z,10.93
2023-04-09T16:44:37.780Z,10.52
2023-04-09T16:47:08.236Z,10.63
2023-04-09T16:49:39.297Z,10.63
2023-04-09T16:52:07.979Z,10.88
2023-04-09T16:54:36.820Z,11.55
2023-04-09T16:57:05.407Z,11.27
2023-04-09T16:59:33.832Z,11.98
2023-04-09T17:02:03.355Z,11.38
2023-04-09T17:04:35.617Z,10.95
2023-04-09T17:07:08.696Z,10.68
2023-04-09T17:09:39.252Z,11.10
2023-04-09T17:12:07.816Z,11.63
2023-04-09T17:14:37.653Z,10.48
2023-04-09T17:17:06.501Z,10.65
2023-04-09T17:19:35.303Z,11.80
2023-04-09T17:22:07.160Z,10.65
2023-04-09T17:24:37.069Z,10.57
2023-04-09T17:27:06.483Z,10.85
2023-04-09T17:29:35.539Z,11.00
2023-04-09T17:32:04.363Z,10.45
2023-04-09T17:34:33.218Z,11.48
2023-04-09T17:37:01.957Z,10.95
2023-04-09T17:39:32.102Z,10.20
2023-04-09T17:42:01.970Z,11.57
2023-04-09T17:44:31.698Z,10.38
2023-04-09T17:47:00.141Z,11.05
2023-04-09T17:49:32.135Z,10.57
2023-04-09T17:52:00.541Z,10.85
2023-04-09T17:54:33.647Z,10.32
2023-04-09T17:57:04.965Z,10.38
2023-04-09T17:59:38.688Z,10.70
2023-04-09T18:02:07.441Z,10.60
2023-04-09T18:04:36.507Z,10.85
2023-04-09T18:07:06.163Z,10.95
2023-04-09T18:09:35.056Z,10.95
2023-04-09T18:12:05.786Z,10.75
2023-04-09T18:14:34.046Z,10.95
2023-04-09T18:17:05.972Z,11.15
2023-04-09T18:19:37.325Z,10.68
2023-04-09T18:22:05.986Z,10.90
2023-04-09T18:24:35.238Z,10.60
2023-04-09T18:27:05.261Z,10.70
2023-04-09T18:29:33.680Z,10.10
2023-04-09T18:32:02.770Z,11.40
2023-04-09T18:34:31.682Z,10.48
2023-04-09T18:37:00.509Z,10.68
2023-04-09T18:39:31.032Z,11.63
2023-04-09T18:41:59.535Z,10.63
2023-04-09T18:44:36.310Z,11.25
2023-04-09T18:47:09.562Z,11.00
2023-04-09T18:49:38.668Z,11.05
2023-04-09T18:52:09.504Z,10.80
2023-04-09T18:54:39.135Z,10.07
2023-04-09T18:57:11.746Z,9.68
2023-04-09T18:59:43.833Z,11.15
2023-04-09T19:02:17.153Z,10.25
2023-04-09T19:04:49.287Z,9.75
2023-04-09T19:07:18.255Z,9.95
2023-04-09T19:09:57.276Z,9.65
2023-04-09T19:12:29.891Z,9.95
2023-04-09T19:15:01.222Z,9.07
2023-04-09T19:17:29.880Z,9.50
2023-04-09T19:20:00.289Z,9.80
2023-04-09T19:22:29.842Z,9.52
2023-04-09T19:25:03.365Z,9.10
2023-04-09T19:27:34.439Z,10.38
2023-04-09T19:30:05.860Z,10.15
2023-04-09T19:32:39.904Z,10.40
2023-04-09T19:35:11.939Z,9.45
2023-04-09T19:39:09.575Z,9.73
2023-04-09T19:41:58.160Z,8.40
2023-04-09T19:47:44.993Z,9.02
2023-04-09T19:50:14.979Z,9.52
2023-04-09T19:52:43.558Z,9.82
2023-04-09T19:55:12.048Z,9.65
2023-04-09T19:57:40.827Z,9.68
2023-04-09T20:00:10.437Z,9.45
2023-04-09T20:02:39.660Z,9.57
2023-04-09T20:05:09.185Z,9.70
2023-04-09T20:07:39.798Z,9.18
2023-04-09T20:10:11.508Z,9.63
2023-04-09T20:12:39.387Z,9.07
2023-04-09T20:15:09.898Z,8.95
2023-04-09T20:17:41.193Z,9.35
2023-04-09T20:20:10.170Z,9.00
2023-04-09T20:22:43.211Z,8.70
2023-04-09T20:25:12.670Z,8.95
2023-04-09T20:27:44.840Z,9.02
2023-04-09T20:30:13.581Z,8.93
2023-04-09T20:32:42.040Z,9.15
2023-04-09T20:35:11.165Z,8.77
2023-04-09T20:37:41.012Z,8.18
2023-04-09T20:40:10.026Z,8.77
2023-04-09T20:42:38.391Z,9.05
2023-04-09T20:45:10.742Z,8.00
2023-04-09T20:47:38.922Z,8.35
2023-04-09T20:50:08.208Z,8.15
2023-04-09T20:52:39.579Z,8.00
2023-04-09T20:55:10.343Z,8.63
2023-04-09T20:57:38.617Z,9.02
2023-04-09T21:00:08.416Z,8.68
2023-04-09T21:02:38.695Z,8.75
2023-04-09T21:05:22.909Z,7.93
2023-04-09T21:07:52.392Z,8.93
2023-04-09T21:10:22.318Z,8.15
2023-04-09T21:12:51.070Z,7.97
2023-04-09T21:15:19.602Z,8.00
2023-04-09T21:17:47.919Z,8.80
2023-04-09T21:20:33.944Z,8.43
2023-04-09T21:23:02.158Z,7.68
2023-04-09T21:25:31.784Z,8.55
2023-04-09T21:27:59.972Z,8.85
2023-04-09T21:30:29.020Z,7.93
2023-04-09T21:32:57.951Z,8.90
2023-04-09T21:35:26.150Z,8.68
2023-04-09T21:37:56.991Z,8.02
2023-04-09T21:40:25.532Z,8.00
2023-04-09T21:42:55.155Z,8.35
2023-04-09T21:45:23.368Z,8.38
2023-04-09T21:47:51.797Z,8.15
2023-04-09T21:50:20.024Z,8.25
2023-04-09T21:52:48.277Z,8.00
2023-04-09T21:55:17.845Z,8.20
2023-04-09T21:57:46.053Z,8.80
2023-04-09T22:00:16.362Z,8.38
2023-04-09T22:02:44.400Z,7.88
2023-04-09T22:05:13.042Z,8.55
2023-04-09T22:07:42.931Z,8.05
2023-04-09T22:10:11.940Z,8.88
2023-04-09T22:12:40.257Z,8.82
2023-04-09T22:15:14.023Z,8.57
2023-04-09T22:17:43.762Z,9.07
2023-04-09T22:20:16.761Z,8.85
2023-04-09T22:22:45.008Z,8.82
2023-04-09T22:25:13.621Z,8.60
2023-04-09T22:27:41.877Z,8.40
2023-04-09T22:30:10.987Z,9.02
2023-04-09T22:32:39.172Z,8.77
2023-04-09T22:35:11.458Z,8.70
2023-04-09T22:37:40.154Z,9.05
2023-04-09T22:40:14.385Z,8.43
2023-04-09T22:42:43.485Z,8.80
2023-04-09T22:45:12.490Z,9.00
2023-04-09T22:47:40.795Z,8.85
2023-04-09T22:50:13.455Z,8.90
2023-04-09T22:52:41.722Z,9.15
2023-04-09T22:55:11.066Z,8.95
2023-04-09T22:57:42.760Z,8.25
2023-04-09T23:00:11.405Z,8.63
2023-04-09T23:02:39.600Z,9.52
2023-04-09T23:05:11.606Z,8.32
2023-04-09T23:07:39.672Z,8.20
2023-04-09T23:10:08.680Z,8.00
2023-04-09T23:12:36.896Z,8.93
2023-04-09T23:15:06.030Z,9.10
2023-04-09T23:17:35.205Z,8.90
2023-04-09T23:20:03.333Z,8.90
2023-04-09T23:22:32.743Z,8.35
2023-04-09T23:25:04.550Z,8.55
2023-04-09T23:27:32.819Z,7.95
2023-04-09T23:30:03.559Z,9.05
2023-04-09T23:32:31.594Z,8.10
2023-04-09T23:35:01.309Z,7.90
2023-04-09T23:37:29.609Z,8.60
2023-04-09T23:39:59.186Z,8.55
2023-04-09T23:42:32.697Z,8.27
2023-04-09T23:45:04.084Z,8.45
2023-04-09T23:47:35.694Z,8.18
2023-04-09T23:50:05.732Z,7.70
2023-04-09T23:52:36.068Z,8.40
2023-04-09T23:55:09.734Z,8.48
2023-04-09T23:57:37.912Z,7.35
